createdAt,value
2022-12-28T00:01:03.518Z,2.5
2022-12-28T00:02:11.201Z,2.9
2022-12-28T00:03:20.866Z,1.3
2022-12-28T00:04:29.468Z,1.2
2022-12-28T00:05:38.127Z,2.1
2022-12-28T00:06:46.771Z,1.3
2022-12-28T00:07:55.425Z,3.9
2022-12-28T00:09:05.076Z,1.8
2022-12-28T00:10:13.781Z,2.5
2022-12-28T00:11:25.538Z,1.3
2022-12-28T00:12:34.070Z,1.5
2022-12-28T00:13:42.710Z,2.4
2022-12-28T00:14:51.406Z,1.6
2022-12-28T00:16:01.104Z,1.6
2022-12-28T00:17:09.738Z,1.6
2022-12-28T00:18:19.389Z,2.2
2022-12-28T00:19:30.047Z,1.8
2022-12-28T00:20:37.705Z,1.8
2022-12-28T00:21:47.389Z,2.7
2022-12-28T00:22:56.019Z,2.2
2022-12-28T00:24:04.699Z,1.5
2022-12-28T00:25:14.405Z,2
2022-12-28T00:26:23.083Z,2.6
2022-12-28T00:27:32.747Z,1.2
2022-12-28T00:28:41.416Z,4
2022-12-28T00:29:50.071Z,2.8
2022-12-28T00:30:59.762Z,2.2
2022-12-28T00:32:08.376Z,2
2022-12-28T00:33:17.071Z,1.7
2022-12-28T00:34:25.739Z,1.3
2022-12-28T00:35:33.383Z,1.1
2022-12-28T00:37:08.007Z,3
2022-12-28T00:37:53.645Z,3.3
2022-12-28T00:39:01.330Z,3
2022-12-28T00:40:10.994Z,2.3
2022-12-28T00:41:20.613Z,1.5
2022-12-28T00:42:29.282Z,1.6
2022-12-28T00:43:38.925Z,1.5
2022-12-28T00:44:46.622Z,1.9
2022-12-28T00:45:56.313Z,2.1
2022-12-28T00:47:04.978Z,1.1
2022-12-28T00:48:14.612Z,2.6
2022-12-28T00:49:24.274Z,1.9
2022-12-28T00:50:33.993Z,1.6
2022-12-28T00:51:42.638Z,1.5
2022-12-28T00:52:51.303Z,2.3
2022-12-28T00:54:01.041Z,1.3
2022-12-28T00:55:10.823Z,1.8
2022-12-28T00:56:19.488Z,2.2
2022-12-28T00:57:27.128Z,2.4
2022-12-28T00:58:36.811Z,2.3
2022-12-28T00:59:46.448Z,1.8
2022-12-28T01:00:55.272Z,1.7
2022-12-28T01:02:02.997Z,2.3
2022-12-28T01:03:12.529Z,1.5
2022-12-28T01:04:22.116Z,2
2022-12-28T01:05:30.775Z,2
2022-12-28T01:06:39.426Z,2.5
2022-12-28T01:07:49.122Z,1.8
2022-12-28T01:08:58.799Z,1.9
2022-12-28T01:10:08.452Z,2
2022-12-28T01:11:17.117Z,1.8
2022-12-28T01:12:25.787Z,2.6
2022-12-28T01:13:36.501Z,2.6
2022-12-28T01:14:45.138Z,1.9
2022-12-28T01:15:53.793Z,1.4
2022-12-28T01:17:03.440Z,2.1
2022-12-28T01:18:12.701Z,1.6
2022-12-28T01:19:21.822Z,2.1
2022-12-28T01:20:31.437Z,1.8
2022-12-28T01:21:39.069Z,1.5
2022-12-28T01:22:48.758Z,2.1
2022-12-28T01:23:57.386Z,1.3
2022-12-28T01:25:05.057Z,1.4
2022-12-28T01:26:14.708Z,1
2022-12-28T01:27:24.377Z,1.3
2022-12-28T01:28:34.065Z,2
2022-12-28T01:29:42.713Z,1.2
2022-12-28T01:30:51.384Z,1.4
2022-12-28T01:32:01.089Z,0.8
2022-12-28T01:33:09.701Z,1.1
2022-12-28T01:34:17.341Z,2.5
2022-12-28T01:35:27.014Z,1.9
2022-12-28T01:36:36.670Z,1.5
2022-12-28T01:37:46.352Z,2
2022-12-28T01:38:56.024Z,1.2
2022-12-28T01:40:03.662Z,1.2
2022-12-28T01:41:13.333Z,1
2022-12-28T01:42:23.036Z,0.6
2022-12-28T01:43:31.679Z,1.1
2022-12-28T01:44:41.333Z,1.4
2022-12-28T01:45:49.980Z,1.2
2022-12-28T01:46:58.621Z,1.8
2022-12-28T01:48:08.312Z,0.9
2022-12-28T01:49:15.953Z,1
2022-12-28T01:50:25.629Z,0.8
2022-12-28T01:51:35.329Z,0.7
2022-12-28T01:52:44.971Z,0.9
2022-12-28T01:53:54.689Z,1.1
2022-12-28T01:55:03.344Z,0.6
2022-12-28T01:56:12.978Z,0.9
2022-12-28T01:57:21.633Z,0.8
2022-12-28T01:58:30.282Z,0.6
2022-12-28T01:59:38.939Z,0.8
2022-12-28T02:00:47.596Z,0.6
2022-12-28T02:01:57.454Z,0.9
2022-12-28T02:03:05.908Z,1.1
2022-12-28T02:04:15.555Z,1
2022-12-28T02:05:25.227Z,1
2022-12-28T02:06:33.867Z,0.9
2022-12-28T02:07:43.591Z,0.8
2022-12-28T02:08:53.214Z,0.7
2022-12-28T02:10:42.054Z,0.5
2022-12-28T02:11:13.507Z,1
2022-12-28T02:12:22.157Z,0.9
2022-12-28T02:13:30.804Z,1
2022-12-28T02:14:40.473Z,1.8
2022-12-28T02:15:50.132Z,1.8
2022-12-28T02:16:59.896Z,2.2
2022-12-28T02:18:09.482Z,1.6
2022-12-28T02:19:17.189Z,1.2
2022-12-28T02:20:26.844Z,1.7
2022-12-28T02:21:36.501Z,1.6
2022-12-28T02:22:45.179Z,2.1
2022-12-28T02:23:54.856Z,1.5
2022-12-28T02:25:11.257Z,2.2
2022-12-28T02:26:15.116Z,1.8
2022-12-28T02:27:24.766Z,0.8
2022-12-28T02:28:32.450Z,1.4
2022-12-28T02:29:42.108Z,2.6
2022-12-28T02:30:50.831Z,1.7
2022-12-28T02:31:59.445Z,1.9
2022-12-28T02:33:09.105Z,1.9
2022-12-28T02:34:18.773Z,2.1
2022-12-28T02:35:28.449Z,2.2
2022-12-28T02:36:37.104Z,1.8
2022-12-28T02:37:44.764Z,1.6
2022-12-28T02:38:54.429Z,1.4
2022-12-28T02:40:03.119Z,1.5
2022-12-28T02:41:11.748Z,1.8
2022-12-28T02:42:21.403Z,1.8
2022-12-28T02:43:31.047Z,1.6
2022-12-28T02:44:39.698Z,1.3
2022-12-28T02:45:49.394Z,1.2
2022-12-28T02:46:57.036Z,1.6
2022-12-28T02:48:06.705Z,1.2
2022-12-28T02:49:15.333Z,1
2022-12-28T02:50:21.980Z,1.1
2022-12-28T02:51:31.698Z,0.5
2022-12-28T02:52:40.341Z,1.3
2022-12-28T02:53:48.997Z,1.2
2022-12-28T02:54:58.650Z,1.3
2022-12-28T02:56:07.338Z,1.3
2022-12-28T02:57:17.038Z,1
2022-12-28T02:58:25.697Z,0.8
2022-12-28T02:59:35.348Z,0.8
2022-12-28T03:00:44.990Z,1.2
2022-12-28T03:01:54.750Z,0.6
2022-12-28T03:03:04.365Z,0.7
2022-12-28T03:04:13.994Z,0.8
2022-12-28T03:05:21.646Z,0.6
2022-12-28T03:06:31.276Z,0.7
2022-12-28T03:07:40.936Z,1.1
2022-12-28T03:08:49.605Z,1
2022-12-28T03:09:59.271Z,1.1
2022-12-28T03:11:07.935Z,0.7
2022-12-28T03:12:16.606Z,1.3
2022-12-28T03:13:26.242Z,0.7
2022-12-28T03:14:34.918Z,0.7
2022-12-28T03:15:44.603Z,0.8
2022-12-28T03:16:53.233Z,0.6
2022-12-28T03:18:01.883Z,0.5
2022-12-28T03:19:11.543Z,1
2022-12-28T03:20:21.218Z,0.6
2022-12-28T03:21:29.877Z,0.4
2022-12-28T03:22:38.532Z,2.4
2022-12-28T03:23:47.193Z,1.4
2022-12-28T03:24:56.847Z,1.2
2022-12-28T03:26:05.543Z,1.2
2022-12-28T03:27:14.196Z,1.4
2022-12-28T03:28:24.863Z,1
2022-12-28T03:29:33.504Z,1.3
2022-12-28T03:30:42.175Z,1.5
2022-12-28T03:31:51.837Z,1.3
2022-12-28T03:33:01.503Z,1.4
2022-12-28T03:34:11.181Z,1.3
2022-12-28T03:35:20.835Z,1.3
2022-12-28T03:36:30.498Z,1.4
2022-12-28T03:37:40.157Z,1.6
2022-12-28T03:38:49.815Z,1.7
2022-12-28T03:39:58.467Z,1.9
2022-12-28T03:41:07.122Z,2.5
2022-12-28T03:42:14.769Z,1.7
2022-12-28T03:43:24.447Z,1.9
2022-12-28T03:44:33.138Z,1.9
2022-12-28T03:45:44.592Z,2
2022-12-28T03:46:53.421Z,1.9
2022-12-28T03:48:02.097Z,1.4
2022-12-28T03:49:10.783Z,1.8
2022-12-28T03:50:19.445Z,1.8
2022-12-28T03:51:29.119Z,1.7
2022-12-28T03:52:38.773Z,1.6
2022-12-28T03:53:48.443Z,1.6
2022-12-28T03:54:57.096Z,1.8
2022-12-28T03:56:06.785Z,1.4
2022-12-28T03:57:16.445Z,1.8
2022-12-28T03:58:26.110Z,1.6
2022-12-28T03:59:35.808Z,1.5
2022-12-28T04:00:45.475Z,0.7
2022-12-28T04:01:54.249Z,1.1
2022-12-28T04:03:03.848Z,0.8
2022-12-28T04:04:13.454Z,0.6
2022-12-28T04:05:22.109Z,0.6
2022-12-28T04:06:31.791Z,0.6
2022-12-28T04:07:41.462Z,0.4
2022-12-28T04:08:50.115Z,0.5
2022-12-28T04:09:58.772Z,0.5
2022-12-28T04:11:09.416Z,0.4
2022-12-28T04:12:17.083Z,0.8
2022-12-28T04:13:26.760Z,0.6
2022-12-28T04:14:36.391Z,0.5
2022-12-28T04:15:45.077Z,0.4
2022-12-28T04:16:54.703Z,0.6
2022-12-28T04:18:03.362Z,0.4
2022-12-28T04:19:12.032Z,0.6
2022-12-28T04:20:19.673Z,0.4
2022-12-28T04:21:28.320Z,0.5
2022-12-28T04:22:37.986Z,0.6
2022-12-28T04:23:47.667Z,0.3
2022-12-28T04:24:56.365Z,0.5
2022-12-28T04:26:06.041Z,1.4
2022-12-28T04:27:14.706Z,0.5
2022-12-28T04:28:23.412Z,1.1
2022-12-28T04:29:32.110Z,0.4
2022-12-28T04:30:41.778Z,0.3
2022-12-28T04:31:51.460Z,0.8
2022-12-28T04:33:01.076Z,0.4
2022-12-28T04:34:09.754Z,0.7
2022-12-28T04:35:19.423Z,0.5
2022-12-28T04:36:29.078Z,0.6
2022-12-28T04:37:37.753Z,0.5
2022-12-28T04:38:46.405Z,0.5
2022-12-28T04:39:57.252Z,0.5
2022-12-28T04:41:05.756Z,0.4
2022-12-28T04:42:14.394Z,0.5
2022-12-28T04:43:23.057Z,0.4
2022-12-28T04:44:31.730Z,0.6
2022-12-28T04:45:40.386Z,0.3
2022-12-28T04:46:50.101Z,0.9
2022-12-28T04:47:59.770Z,0.4
2022-12-28T04:49:07.442Z,0.4
2022-12-28T04:50:17.107Z,0.9
2022-12-28T04:51:25.813Z,0.6
2022-12-28T04:52:33.441Z,0.5
2022-12-28T04:53:42.097Z,0.5
2022-12-28T04:54:50.745Z,0.5
2022-12-28T04:56:00.398Z,1.1
2022-12-28T04:57:09.043Z,0.4
2022-12-28T04:58:17.827Z,0.4
2022-12-28T04:59:27.519Z,0.3
2022-12-28T05:00:37.184Z,0.6
2022-12-28T05:01:45.011Z,0.4
2022-12-28T05:02:54.539Z,1
2022-12-28T05:04:04.184Z,0.9
2022-12-28T05:05:13.838Z,0.3
2022-12-28T05:06:22.490Z,0.3
2022-12-28T05:07:31.145Z,0.4
2022-12-28T05:08:40.820Z,0.3
2022-12-28T05:09:50.463Z,0.5
2022-12-28T05:10:58.105Z,0.8
2022-12-28T05:12:07.799Z,0.4
2022-12-28T05:13:17.476Z,0.5
2022-12-28T05:14:28.933Z,1.2
2022-12-28T05:15:37.925Z,0.5
2022-12-28T05:16:46.604Z,0.3
2022-12-28T05:17:56.249Z,0.7
2022-12-28T05:19:05.931Z,0.9
2022-12-28T05:20:14.602Z,0.5
2022-12-28T05:21:24.271Z,0.7
2022-12-28T05:22:36.285Z,0.6
2022-12-28T05:23:42.585Z,0.4
2022-12-28T05:24:51.249Z,0.6
2022-12-28T05:25:59.899Z,0.7
2022-12-28T05:27:09.603Z,0.5
2022-12-28T05:28:18.265Z,0.7
2022-12-28T05:29:27.947Z,1.4
2022-12-28T05:30:36.619Z,0.6
2022-12-28T05:31:45.290Z,1.3
2022-12-28T05:32:54.983Z,0.4
2022-12-28T05:34:04.641Z,0.7
2022-12-28T05:35:13.303Z,0.6
2022-12-28T05:36:23.019Z,0.6
2022-12-28T05:37:32.695Z,0.6
2022-12-28T05:38:42.373Z,0.8
2022-12-28T05:39:52.075Z,0.5
2022-12-28T05:41:00.742Z,3.6
2022-12-28T05:42:09.436Z,0.7
2022-12-28T05:43:18.099Z,0.6
2022-12-28T05:44:26.778Z,0.9
2022-12-28T05:45:36.501Z,0.8
2022-12-28T05:46:45.187Z,0.9
2022-12-28T05:47:54.801Z,0.9
2022-12-28T05:49:04.507Z,0.9
2022-12-28T05:50:13.219Z,1
2022-12-28T05:51:22.927Z,1.2
2022-12-28T05:52:32.578Z,1.2
2022-12-28T05:53:41.211Z,1.3
2022-12-28T05:54:50.894Z,0.8
2022-12-28T05:56:00.558Z,0.6
2022-12-28T05:57:10.263Z,0.6
2022-12-28T05:58:19.940Z,1
2022-12-28T05:59:28.594Z,0.7
2022-12-28T06:00:38.254Z,1.2
2022-12-28T06:01:48.077Z,0.6
2022-12-28T06:02:56.767Z,0.7
2022-12-28T06:04:05.262Z,1.1
2022-12-28T06:05:14.905Z,0.6
2022-12-28T06:06:24.575Z,0.9
2022-12-28T06:07:33.243Z,0.9
2022-12-28T06:08:42.944Z,0.6
2022-12-28T06:09:52.579Z,1.1
2022-12-28T06:11:01.226Z,0.9
2022-12-28T06:12:09.907Z,0.7
2022-12-28T06:13:19.588Z,0.5
2022-12-28T06:14:29.250Z,0.5
2022-12-28T06:15:38.923Z,0.5
2022-12-28T06:16:46.658Z,0.5
2022-12-28T06:17:55.218Z,0.5
2022-12-28T06:19:04.942Z,0.6
2022-12-28T06:20:14.590Z,0.7
2022-12-28T06:21:23.241Z,0.5
2022-12-28T06:22:31.900Z,0.8
2022-12-28T06:23:39.597Z,1.2
2022-12-28T06:24:49.380Z,0.5
2022-12-28T06:25:58.980Z,0.6
2022-12-28T06:27:07.637Z,0.5
2022-12-28T06:28:17.298Z,0.8
2022-12-28T06:29:25.953Z,0.4
2022-12-28T06:30:34.654Z,0.6
2022-12-28T06:31:42.350Z,0.8
2022-12-28T06:32:50.981Z,1.1
2022-12-28T06:34:00.653Z,0.5
2022-12-28T06:35:10.312Z,0.6
2022-12-28T06:36:20.831Z,0.6
2022-12-28T06:37:29.642Z,0.6
2022-12-28T06:38:38.284Z,0.7
2022-12-28T06:39:48.033Z,1.1
2022-12-28T06:41:14.415Z,1.1
2022-12-28T06:42:06.240Z,0.7
2022-12-28T06:43:15.906Z,0.7
2022-12-28T06:44:24.613Z,1.2
2022-12-28T06:45:33.389Z,1
2022-12-28T06:46:43.076Z,0.7
2022-12-28T06:47:51.746Z,0.7
2022-12-28T06:49:00.402Z,1.5
2022-12-28T06:50:09.085Z,0.4
2022-12-28T06:51:18.745Z,0.9
2022-12-28T06:52:28.406Z,1
2022-12-28T06:53:37.070Z,0.5
2022-12-28T06:54:46.755Z,0.5
2022-12-28T06:55:56.412Z,0.9
2022-12-28T06:57:05.099Z,2.6
2022-12-28T06:58:14.756Z,0.8
2022-12-28T06:59:23.448Z,0.6
2022-12-28T07:00:32.113Z,4.3
2022-12-28T07:01:41.872Z,0.5
2022-12-28T07:02:51.491Z,0.5
2022-12-28T07:03:59.117Z,0.6
2022-12-28T07:05:08.848Z,0.5
2022-12-28T07:06:18.484Z,0.7
2022-12-28T07:07:28.145Z,1
2022-12-28T07:08:36.805Z,0.5
2022-12-28T07:09:46.471Z,0.7
2022-12-28T07:10:56.151Z,1.3
2022-12-28T07:12:05.798Z,0.7
2022-12-28T07:13:14.506Z,0.6
2022-12-28T07:14:24.145Z,1.6
2022-12-28T07:15:32.791Z,0.8
2022-12-28T07:17:42.874Z,0.6
2022-12-28T07:18:50.532Z,0.7
2022-12-28T07:20:00.192Z,0.5
2022-12-28T07:21:08.836Z,0.9
2022-12-28T07:22:16.502Z,1.2
2022-12-28T07:23:26.164Z,0.6
2022-12-28T07:24:34.829Z,0.7
2022-12-28T07:25:44.493Z,0.8
2022-12-28T07:26:53.189Z,1
2022-12-28T07:28:01.875Z,0.7
2022-12-28T07:29:11.593Z,0.8
2022-12-28T07:30:21.233Z,1.1
2022-12-28T07:31:28.900Z,0.8
2022-12-28T07:32:38.613Z,0.6
2022-12-28T07:33:48.331Z,0.9
2022-12-28T07:34:57.092Z,0.6
2022-12-28T07:36:06.770Z,0.5
2022-12-28T07:37:14.443Z,0.6
2022-12-28T07:38:24.109Z,1.2
2022-12-28T07:39:33.932Z,0.7
2022-12-28T07:40:41.631Z,0.8
2022-12-28T07:41:51.293Z,0.3
2022-12-28T07:42:59.986Z,0.4
2022-12-28T07:44:08.640Z,0.8
2022-12-28T07:45:17.347Z,0.7
2022-12-28T07:46:25.099Z,1.2
2022-12-28T07:47:34.701Z,1.2
2022-12-28T07:48:43.359Z,1.4
2022-12-28T07:49:52.059Z,0.7
2022-12-28T07:51:01.759Z,0.9
2022-12-28T07:52:08.419Z,0.6
2022-12-28T07:53:22.135Z,0.7
2022-12-28T07:54:28.731Z,0.4
2022-12-28T07:55:37.423Z,1.2
2022-12-28T07:57:46.517Z,0.7
2022-12-28T07:59:56.592Z,0.5
2022-12-28T08:01:06.480Z,0.9
2022-12-28T08:02:16.162Z,0.6
2022-12-28T08:03:24.733Z,0.4
2022-12-28T08:04:33.336Z,0.8
2022-12-28T08:05:42.017Z,0.3
2022-12-28T08:06:49.673Z,0.5
2022-12-28T08:08:03.473Z,0.5
2022-12-28T08:09:09.106Z,0.6
2022-12-28T08:10:17.809Z,0.7
2022-12-28T08:11:27.440Z,0.8
2022-12-28T08:12:36.103Z,0.6
2022-12-28T08:13:44.824Z,0.7
2022-12-28T08:14:54.498Z,0.9
2022-12-28T08:16:03.209Z,0.5
2022-12-28T08:17:17.475Z,0.8
2022-12-28T08:18:22.511Z,0.8
2022-12-28T08:19:31.175Z,1
2022-12-28T08:20:40.853Z,0.8
2022-12-28T08:21:49.575Z,0.9
2022-12-28T08:23:00.232Z,0.4
2022-12-28T08:24:09.911Z,0.6
2022-12-28T08:25:17.636Z,0.5
2022-12-28T08:26:27.306Z,0.4
2022-12-28T08:27:38.543Z,0.5
2022-12-28T08:28:44.630Z,0.4
2022-12-28T08:29:54.289Z,0.6
2022-12-28T08:31:03.087Z,0.8
2022-12-28T08:32:12.700Z,0.6
2022-12-28T08:33:22.407Z,0.5
2022-12-28T08:34:31.057Z,0.6
2022-12-28T08:35:40.741Z,0.6
2022-12-28T08:36:50.497Z,0.8
2022-12-28T08:37:59.155Z,0.8
2022-12-28T08:39:08.885Z,1.6
2022-12-28T08:40:17.530Z,0.8
2022-12-28T08:41:27.200Z,0.8
2022-12-28T08:42:35.883Z,0.7
2022-12-28T08:43:45.585Z,0.6
2022-12-28T08:44:55.219Z,1.1
2022-12-28T08:46:04.996Z,0.8
2022-12-28T08:47:12.597Z,0.9
2022-12-28T08:48:22.245Z,0.8
2022-12-28T08:49:30.950Z,0.7
2022-12-28T08:50:40.588Z,0.8
2022-12-28T08:51:49.238Z,1.2
2022-12-28T08:52:56.986Z,1.2
2022-12-28T08:54:06.714Z,0.9
2022-12-28T08:55:15.393Z,0.9
2022-12-28T08:56:24.080Z,1.2
2022-12-28T08:57:33.737Z,0.5
2022-12-28T08:58:43.443Z,0.7
2022-12-28T08:59:52.125Z,1.8
2022-12-28T09:01:01.816Z,0.6
2022-12-28T09:02:09.575Z,0.8
2022-12-28T09:03:19.245Z,0.9
2022-12-28T09:04:27.817Z,0.9
2022-12-28T09:05:39.609Z,1
2022-12-28T09:06:47.146Z,1.1
2022-12-28T09:07:59.652Z,1
2022-12-28T09:09:07.538Z,1
2022-12-28T09:10:16.137Z,1.2
2022-12-28T09:11:24.852Z,1.2
2022-12-28T09:12:34.588Z,1.9
2022-12-28T09:13:43.231Z,1.3
2022-12-28T09:14:51.926Z,1.3
2022-12-28T09:16:02.677Z,1.3
2022-12-28T09:17:11.324Z,1.1
2022-12-28T09:18:19.983Z,1.2
2022-12-28T09:19:29.667Z,1.4
2022-12-28T09:20:40.836Z,1
2022-12-28T09:21:49.222Z,1.3
2022-12-28T09:22:58.691Z,1.5
2022-12-28T09:24:08.360Z,1.4
2022-12-28T09:25:18.048Z,1.4
2022-12-28T09:26:27.736Z,1
2022-12-28T09:27:36.439Z,1.6
2022-12-28T09:28:45.117Z,1.4
2022-12-28T09:29:52.779Z,2.1
2022-12-28T09:31:02.527Z,1.5
2022-12-28T09:32:12.103Z,1.6
2022-12-28T09:33:19.788Z,1.5
2022-12-28T09:34:35.972Z,1.1
2022-12-28T09:35:39.134Z,0.8
2022-12-28T09:36:48.829Z,0.9
2022-12-28T09:37:58.528Z,1.7
2022-12-28T09:39:06.220Z,1.5
2022-12-28T09:40:15.910Z,1.3
2022-12-28T09:41:25.610Z,1.2
2022-12-28T09:42:35.308Z,0.6
2022-12-28T09:43:44.998Z,0.9
2022-12-28T09:44:54.699Z,1.3
2022-12-28T09:46:03.400Z,0.7
2022-12-28T09:47:13.051Z,0.3
2022-12-28T09:48:21.737Z,0.6
2022-12-28T09:49:31.410Z,0.5
2022-12-28T09:50:39.216Z,0.5
2022-12-28T09:51:48.879Z,0.4
2022-12-28T09:52:57.580Z,0.8
2022-12-28T09:54:06.278Z,0.4
2022-12-28T09:55:15.960Z,1.3
2022-12-28T09:56:25.605Z,0.8
2022-12-28T09:57:35.357Z,0.3
2022-12-28T09:58:47.841Z,0.3
2022-12-28T09:59:53.694Z,3
2022-12-28T10:01:03.377Z,2
2022-12-28T10:02:12.175Z,1.8
2022-12-28T10:03:19.821Z,1.4
2022-12-28T10:04:29.417Z,1.1
2022-12-28T10:05:40.079Z,0.8
2022-12-28T10:06:48.748Z,0.6
2022-12-28T10:07:58.438Z,0.5
2022-12-28T10:09:07.108Z,0.5
2022-12-28T10:10:16.809Z,1
2022-12-28T10:11:26.442Z,1.1
2022-12-28T10:12:35.145Z,1
2022-12-28T10:13:54.410Z,0.9
2022-12-28T10:14:55.658Z,0.6
2022-12-28T10:16:04.333Z,0.7
2022-12-28T10:17:12.989Z,0.6
2022-12-28T10:18:22.667Z,1.9
2022-12-28T10:19:32.328Z,1.7
2022-12-28T10:20:41.016Z,1.1
2022-12-28T10:21:48.662Z,1.1
2022-12-28T10:22:58.325Z,1.2
2022-12-28T10:25:18.631Z,1.2
2022-12-28T10:26:28.304Z,0.7
2022-12-28T10:27:35.971Z,0.7
2022-12-28T10:28:48.713Z,0.9
2022-12-28T10:29:56.253Z,1.1
2022-12-28T10:31:03.945Z,0.8
2022-12-28T10:32:13.570Z,0.4
2022-12-28T10:33:23.271Z,0.6
2022-12-28T10:34:34.414Z,1
2022-12-28T10:35:41.574Z,1.2
2022-12-28T10:36:50.214Z,1.2
2022-12-28T10:37:59.884Z,1.1
2022-12-28T10:39:08.572Z,1.4
2022-12-28T10:40:16.261Z,1.3
2022-12-28T10:41:25.929Z,1.3
2022-12-28T10:42:34.575Z,1.8
2022-12-28T10:43:44.263Z,1.4
2022-12-28T10:44:52.921Z,1.1
2022-12-28T10:46:01.582Z,1.1
2022-12-28T10:47:11.231Z,1.3
2022-12-28T10:48:20.876Z,1.2
2022-12-28T10:49:29.629Z,2.8
2022-12-28T10:50:39.317Z,1.8
2022-12-28T10:51:47.954Z,1.1
2022-12-28T10:52:56.616Z,1.8
2022-12-28T10:54:05.311Z,0.9
2022-12-28T10:55:14.023Z,1.2
2022-12-28T10:56:24.673Z,1.8
2022-12-28T10:57:37.765Z,1.6
2022-12-28T10:58:44.974Z,2
2022-12-28T10:59:54.628Z,2.1
2022-12-28T11:01:03.448Z,2
2022-12-28T11:02:14.136Z,2.4
2022-12-28T11:03:22.729Z,2
2022-12-28T11:04:31.358Z,2.3
2022-12-28T11:05:41.040Z,2.5
2022-12-28T11:06:49.709Z,2.1
2022-12-28T11:07:57.358Z,2.3
2022-12-28T11:09:07.047Z,2.3
2022-12-28T11:10:15.718Z,2.2
2022-12-28T11:11:25.340Z,2.2
2022-12-28T11:12:34.012Z,1.9
2022-12-28T11:13:41.680Z,2.3
2022-12-28T11:14:51.335Z,1.9
2022-12-28T11:16:01.034Z,1.6
2022-12-28T11:17:09.639Z,3.7
2022-12-28T11:18:19.344Z,1.1
2022-12-28T11:19:28.002Z,1.3
2022-12-28T11:20:37.661Z,2
2022-12-28T11:21:47.335Z,1.8
2022-12-28T11:22:56.987Z,0.4
2022-12-28T11:24:06.709Z,0.4
2022-12-28T11:25:16.328Z,0.5
2022-12-28T11:26:23.982Z,2.4
2022-12-28T11:27:33.648Z,0.5
2022-12-28T11:28:42.297Z,0.3
2022-12-28T11:29:52.047Z,0.6
2022-12-28T11:31:01.703Z,0.3
2022-12-28T11:32:11.346Z,0.3
2022-12-28T11:33:21.073Z,0.3
2022-12-28T11:34:30.755Z,0.6
2022-12-28T11:35:39.435Z,0.3
2022-12-28T11:36:49.106Z,0.7
2022-12-28T11:37:58.778Z,0.3
2022-12-28T11:39:07.431Z,0.8
2022-12-28T11:40:17.130Z,0.5
2022-12-28T11:41:27.700Z,0.4
2022-12-28T11:42:39.330Z,0.8
2022-12-28T11:43:45.041Z,0.4
2022-12-28T11:44:52.700Z,0.4
2022-12-28T11:46:02.436Z,0.4
2022-12-28T11:47:12.069Z,0.4
2022-12-28T11:48:21.728Z,0.3
2022-12-28T11:49:30.414Z,0.4
2022-12-28T11:50:39.087Z,0.5
2022-12-28T11:51:47.775Z,0.9
2022-12-28T11:52:56.483Z,0.4
2022-12-28T11:54:06.145Z,0.5
2022-12-28T11:55:14.816Z,0.3
2022-12-28T11:56:23.475Z,0.4
2022-12-28T11:57:33.158Z,0.3
2022-12-28T11:58:41.851Z,0.2
2022-12-28T11:59:51.524Z,0.2
2022-12-28T12:01:00.393Z,0.2
2022-12-28T12:02:09.958Z,0.2
2022-12-28T12:03:19.604Z,0.3
2022-12-28T12:04:28.303Z,0.4
2022-12-28T12:05:36.974Z,0.3
2022-12-28T12:06:45.630Z,0.4
2022-12-28T12:07:54.278Z,1.7
2022-12-28T12:09:03.945Z,1.2
2022-12-28T12:10:12.640Z,0.6
2022-12-28T12:11:20.303Z,0.5
2022-12-28T12:12:28.975Z,0.5
2022-12-28T12:13:37.706Z,0.3
2022-12-28T12:14:47.378Z,0.4
2022-12-28T12:15:57.069Z,0.2
2022-12-28T12:17:06.830Z,0.2
2022-12-28T12:18:16.512Z,0.3
2022-12-28T12:19:26.159Z,0.3
2022-12-28T12:20:33.816Z,0.3
2022-12-28T12:21:43.539Z,0.3
2022-12-28T12:22:53.184Z,0.5
2022-12-28T12:24:00.860Z,0.7
2022-12-28T12:25:10.505Z,1.4
2022-12-28T12:26:20.166Z,1.1
2022-12-28T12:27:28.885Z,0.9
2022-12-28T12:28:38.579Z,0.4
2022-12-28T12:29:46.259Z,0.2
2022-12-28T12:30:55.977Z,0.3
2022-12-28T12:32:05.633Z,0.2
2022-12-28T12:33:14.347Z,0.2
2022-12-28T12:34:24.031Z,0.3
2022-12-28T12:35:32.665Z,0.3
2022-12-28T12:36:42.361Z,0.4
2022-12-28T12:37:51.044Z,0.7
2022-12-28T12:38:58.759Z,0.8
2022-12-28T12:40:08.445Z,0.3
2022-12-28T12:41:18.132Z,0.2
2022-12-28T12:42:25.794Z,0.6
2022-12-28T12:43:35.462Z,0.1
2022-12-28T12:44:44.156Z,0.2
2022-12-28T12:45:53.939Z,0.2
2022-12-28T12:47:05.793Z,0.1
2022-12-28T12:48:12.169Z,0.4
2022-12-28T12:49:21.874Z,0.3
2022-12-28T12:50:30.598Z,0.4
2022-12-28T12:51:38.235Z,1.2
2022-12-28T12:52:47.892Z,0.2
2022-12-28T12:53:57.568Z,0.2
2022-12-28T12:55:06.269Z,0.2
2022-12-28T12:56:14.925Z,0.3
2022-12-28T12:57:23.619Z,0.3
2022-12-28T12:58:33.300Z,0.4
2022-12-28T12:59:41.973Z,0.5
2022-12-28T13:00:51.618Z,0.2
2022-12-28T13:02:01.418Z,0.2
2022-12-28T13:03:10.132Z,0.3
2022-12-28T13:04:19.627Z,0.4
2022-12-28T13:05:29.320Z,0.5
2022-12-28T13:06:37.999Z,0.3
2022-12-28T13:07:47.659Z,0.3
2022-12-28T13:09:01.911Z,0.6
2022-12-28T13:10:06.943Z,0.4
2022-12-28T13:11:16.839Z,0.5
2022-12-28T13:12:26.497Z,0.5
2022-12-28T13:13:35.191Z,0.3
2022-12-28T13:14:44.885Z,0.2
2022-12-28T13:15:52.536Z,0.3
2022-12-28T13:17:02.215Z,0.2
2022-12-28T13:18:43.338Z,0.4
2022-12-28T13:19:19.499Z,0.5
2022-12-28T13:20:28.163Z,2.2
2022-12-28T13:21:37.867Z,0.2
2022-12-28T13:22:45.579Z,0.2
2022-12-28T13:23:55.228Z,0.2
2022-12-28T13:25:03.972Z,0.9
2022-12-28T13:26:12.642Z,0.2
2022-12-28T13:27:21.296Z,0.2
2022-12-28T13:28:29.984Z,0.3
2022-12-28T13:29:39.641Z,0.2
2022-12-28T13:30:48.359Z,0.2
2022-12-28T13:31:56.990Z,0.4
2022-12-28T13:33:05.677Z,0.1
2022-12-28T13:34:15.355Z,0.3
2022-12-28T13:35:25.040Z,0.3
2022-12-28T13:36:33.911Z,0.3
2022-12-28T13:37:41.574Z,0.4
2022-12-28T13:38:51.252Z,0.3
2022-12-28T13:39:59.885Z,0.4
2022-12-28T13:41:09.572Z,0.6
2022-12-28T13:42:19.279Z,0.4
2022-12-28T13:43:27.957Z,0.4
2022-12-28T13:44:37.857Z,0.3
2022-12-28T13:45:50.865Z,0.4
2022-12-28T13:46:57.167Z,1.4
2022-12-28T13:48:05.849Z,0.9
2022-12-28T13:49:13.531Z,0.4
2022-12-28T13:50:23.226Z,0.3
2022-12-28T13:51:31.896Z,0.3
2022-12-28T13:52:41.550Z,0.3
2022-12-28T13:53:51.229Z,0.6
2022-12-28T13:54:59.938Z,0.3
2022-12-28T13:56:09.612Z,0.3
2022-12-28T13:57:51.448Z,0.3
2022-12-28T13:58:28.916Z,0.3
2022-12-28T13:59:38.657Z,0.2
2022-12-28T14:00:48.387Z,0.9
2022-12-28T14:01:57.228Z,0.9
2022-12-28T14:03:06.863Z,0.2
2022-12-28T14:05:27.283Z,0.3
2022-12-28T14:06:36.869Z,0.3
2022-12-28T14:07:45.543Z,0.3
2022-12-28T14:08:55.269Z,0.2
2022-12-28T14:10:04.968Z,1.2
2022-12-28T14:11:13.652Z,0.2
2022-12-28T14:12:22.333Z,0.2
2022-12-28T14:13:30.982Z,1
2022-12-28T14:14:40.665Z,0.2
2022-12-28T14:15:50.371Z,0.5
2022-12-28T14:16:58.028Z,0.5
2022-12-28T14:18:07.782Z,0.2
2022-12-28T14:19:17.481Z,0.3
2022-12-28T14:20:27.193Z,2.2
2022-12-28T14:21:36.864Z,0.4
2022-12-28T14:22:45.545Z,0.3
2022-12-28T14:23:55.254Z,0.4
2022-12-28T14:25:04.981Z,0.3
2022-12-28T14:26:12.655Z,0.6
2022-12-28T14:27:23.288Z,0.6
2022-12-28T14:28:32.991Z,0.4
2022-12-28T14:29:42.660Z,0.4
2022-12-28T14:30:51.353Z,0.4
2022-12-28T14:31:59.979Z,2.8
2022-12-28T14:33:13.785Z,0.7
2022-12-28T14:34:20.286Z,0.8
2022-12-28T14:35:28.952Z,1.1
2022-12-28T14:36:38.615Z,0.7
2022-12-28T14:37:48.289Z,0.8
2022-12-28T14:39:02.840Z,1
2022-12-28T14:40:08.602Z,0.8
2022-12-28T14:41:16.263Z,4
2022-12-28T14:42:25.914Z,0.8
2022-12-28T14:43:35.589Z,0.7
2022-12-28T14:44:44.258Z,0.8
2022-12-28T14:46:05.627Z,0.8
2022-12-28T14:47:05.628Z,0.9
2022-12-28T14:48:14.235Z,1
2022-12-28T14:49:22.908Z,1.4
2022-12-28T14:50:31.605Z,1.5
2022-12-28T14:51:44.347Z,1.3
2022-12-28T14:52:51.944Z,1.7
2022-12-28T14:53:59.584Z,1.9
2022-12-28T14:55:09.313Z,1.9
2022-12-28T14:56:18.947Z,2.8
2022-12-28T14:57:27.659Z,2.5
2022-12-28T14:58:36.311Z,3.3
2022-12-28T14:59:44.989Z,4.3
2022-12-28T15:00:54.641Z,3.8
2022-12-28T15:02:04.397Z,3.9
2022-12-28T15:03:15.084Z,3.7
2022-12-28T15:04:24.702Z,3.5
2022-12-28T15:05:33.373Z,3.3
2022-12-28T15:06:43.044Z,2.5
2022-12-28T15:07:52.742Z,3
2022-12-28T15:09:02.394Z,2.2
2022-12-28T15:10:12.233Z,1.2
2022-12-28T15:11:21.900Z,1.2
2022-12-28T15:12:30.573Z,1
2022-12-28T15:13:40.208Z,0.8
2022-12-28T15:14:48.893Z,0.8
2022-12-28T15:15:58.597Z,0.6
2022-12-28T15:17:07.271Z,0.6
2022-12-28T15:18:14.885Z,1.7
2022-12-28T15:19:24.557Z,0.7
2022-12-28T15:20:34.345Z,0.6
2022-12-28T15:21:42.023Z,0.8
2022-12-28T15:22:51.675Z,0.8
2022-12-28T15:24:01.358Z,0.9
2022-12-28T15:25:11.033Z,0.8
2022-12-28T15:26:19.746Z,1.2
2022-12-28T15:27:27.406Z,0.6
2022-12-28T15:28:37.136Z,0.9
2022-12-28T15:30:04.800Z,0.8
2022-12-28T15:30:55.380Z,0.8
2022-12-28T15:32:05.078Z,1.1
2022-12-28T15:33:13.771Z,1.2
2022-12-28T15:34:22.411Z,1.9
2022-12-28T15:35:31.083Z,2.1
2022-12-28T15:36:40.750Z,2
2022-12-28T15:37:50.454Z,1.5
2022-12-28T15:38:59.124Z,1.6
2022-12-28T15:40:06.783Z,2.3
2022-12-28T15:41:16.457Z,1.5
2022-12-28T15:42:26.153Z,2.3
2022-12-28T15:43:35.846Z,1.5
2022-12-28T15:44:43.610Z,1.4
2022-12-28T15:45:53.195Z,2.2
2022-12-28T15:47:01.900Z,2.2
2022-12-28T15:48:10.523Z,2.8
2022-12-28T15:49:20.210Z,2.9
2022-12-28T15:50:28.871Z,3.5
2022-12-28T15:51:36.595Z,2.8
2022-12-28T15:52:46.276Z,2.2
2022-12-28T15:53:55.963Z,2.4
2022-12-28T15:55:04.645Z,2.8
2022-12-28T15:56:13.321Z,3.8
2022-12-28T15:57:21.991Z,4.2
2022-12-28T15:58:31.663Z,3.8
2022-12-28T15:59:40.362Z,4.3
2022-12-28T16:00:50.197Z,4.5
2022-12-28T16:02:00.051Z,3.8